sensor_id;sensor_type;location;lat;lon;timestamp;P1;durP1;ratioP1;P2;durP2;ratioP2
42196;SDS011;27866;48.146;17.098;2023-04-24T00:03:18;11.55;;;6.85;;
42196;SDS011;27866;48.146;17.098;2023-04-24T00:07:31;12.35;;;6.20;;
42196;SDS011;27866;48.146;17.098;2023-04-24T00:11:43;10.63;;;6.97;;
42196;SDS011;27866;48.146;17.098;2023-04-24T00:15:54;10.05;;;6.60;;
42196;SDS011;27866;48.146;17.098;2023-04-24T00:20:06;13.48;;;6.63;;
42196;SDS011;27866;48.146;17.098;2023-04-24T00:24:18;10.48;;;7.25;;
42196;SDS011;27866;48.146;17.098;2023-04-24T00:28:29;10.55;;;6.80;;
42196;SDS011;27866;48.146;17.098;2023-04-24T00:32:40;12.25;;;6.80;;
42196;SDS011;27866;48.146;17.098;2023-04-24T00:36:52;12.27;;;7.13;;
42196;SDS011;27866;48.146;17.098;2023-04-24T00:41:03;12.25;;;7.43;;
42196;SDS011;27866;48.146;17.098;2023-04-24T00:45:15;10.55;;;7.13;;
42196;SDS011;27866;48.146;17.098;2023-04-24T00:49:26;8.75;;;7.18;;
42196;SDS011;27866;48.146;17.098;2023-04-24T00:53:37;11.40;;;7.10;;
42196;SDS011;27866;48.146;17.098;2023-04-24T00:57:49;9.98;;;6.95;;
42196;SDS011;27866;48.146;17.098;2023-04-24T01:02:01;9.05;;;7.30;;
42196;SDS011;27866;48.146;17.098;2023-04-24T01:06:12;13.13;;;7.25;;
42196;SDS011;27866;48.146;17.098;2023-04-24T01:10:24;12.40;;;7.03;;
42196;SDS011;27866;48.146;17.098;2023-04-24T01:14:37;10.55;;;7.05;;
42196;SDS011;27866;48.146;17.098;2023-04-24T01:18:48;8.95;;;7.18;;
42196;SDS011;27866;48.146;17.098;2023-04-24T01:23:02;13.27;;;7.33;;
42196;SDS011;27866;48.146;17.098;2023-04-24T01:27:13;11.63;;;6.75;;
42196;SDS011;27866;48.146;17.098;2023-04-24T01:31:25;10.65;;;7.10;;
42196;SDS011;27866;48.146;17.098;2023-04-24T01:35:37;9.80;;;7.40;;
42196;SDS011;27866;48.146;17.098;2023-04-24T01:39:48;9.80;;;7.25;;
42196;SDS011;27866;48.146;17.098;2023-04-24T01:44:00;12.32;;;6.88;;
42196;SDS011;27866;48.146;17.098;2023-04-24T01:48:12;9.68;;;6.45;;
42196;SDS011;27866;48.146;17.098;2023-04-24T01:52:23;9.98;;;6.45;;
42196;SDS011;27866;48.146;17.098;2023-04-24T01:56:35;12.77;;;7.80;;
42196;SDS011;27866;48.146;17.098;2023-04-24T02:00:49;10.18;;;7.03;;
42196;SDS011;27866;48.146;17.098;2023-04-24T02:05:00;8.75;;;6.68;;
42196;SDS011;27866;48.146;17.098;2023-04-24T02:09:11;9.13;;;6.47;;
42196;SDS011;27866;48.146;17.098;2023-04-24T02:13:22;12.68;;;7.13;;
42196;SDS011;27866;48.146;17.098;2023-04-24T02:17:34;12.10;;;7.55;;
42196;SDS011;27866;48.146;17.098;2023-04-24T02:21:45;8.07;;;6.88;;
42196;SDS011;27866;48.146;17.098;2023-04-24T02:25:56;9.25;;;7.13;;
42196;SDS011;27866;48.146;17.098;2023-04-24T02:30:08;13.38;;;7.40;;
42196;SDS011;27866;48.146;17.098;2023-04-24T02:34:20;10.80;;;6.75;;
42196;SDS011;27866;48.146;17.098;2023-04-24T02:38:31;11.85;;;7.38;;
42196;SDS011;27866;48.146;17.098;2023-04-24T02:42:43;9.05;;;6.95;;
42196;SDS011;27866;48.146;17.098;2023-04-24T02:46:54;11.77;;;8.38;;
42196;SDS011;27866;48.146;17.098;2023-04-24T02:51:07;12.15;;;7.82;;
42196;SDS011;27866;48.146;17.098;2023-04-24T02:55:18;11.07;;;7.18;;
42196;SDS011;27866;48.146;17.098;2023-04-24T02:59:31;11.05;;;7.45;;
42196;SDS011;27866;48.146;17.098;2023-04-24T03:03:42;11.70;;;8.73;;
42196;SDS011;27866;48.146;17.098;2023-04-24T03:07:54;10.75;;;7.60;;
42196;SDS011;27866;48.146;17.098;2023-04-24T03:12:05;9.93;;;7.53;;
42196;SDS011;27866;48.146;17.098;2023-04-24T03:16:17;15.07;;;8.10;;
42196;SDS011;27866;48.146;17.098;2023-04-24T03:20:28;11.98;;;8.23;;
42196;SDS011;27866;48.146;17.098;2023-04-24T03:24:41;12.37;;;7.97;;
42196;SDS011;27866;48.146;17.098;2023-04-24T03:28:53;12.93;;;8.63;;
42196;SDS011;27866;48.146;17.098;2023-04-24T03:33:04;14.18;;;7.82;;
42196;SDS011;27866;48.146;17.098;2023-04-24T03:37:20;15.20;;;8.25;;
42196;SDS011;27866;48.146;17.098;2023-04-24T03:41:42;12.63;;;8.57;;
42196;SDS011;27866;48.146;17.098;2023-04-24T03:45:58;12.10;;;8.13;;
42196;SDS011;27866;48.146;17.098;2023-04-24T03:50:10;14.90;;;9.55;;
42196;SDS011;27866;48.146;17.098;2023-04-24T03:54:21;14.88;;;8.82;;
42196;SDS011;27866;48.146;17.098;2023-04-24T03:58:34;10.48;;;7.95;;
42196;SDS011;27866;48.146;17.098;2023-04-24T04:02:46;14.23;;;9.52;;
42196;SDS011;27866;48.146;17.098;2023-04-24T04:06:57;11.73;;;8.90;;
42196;SDS011;27866;48.146;17.098;2023-04-24T04:11:11;14.32;;;9.55;;
42196;SDS011;27866;48.146;17.098;2023-04-24T04:15:23;14.02;;;9.32;;
42196;SDS011;27866;48.146;17.098;2023-04-24T04:19:35;14.68;;;9.50;;
42196;SDS011;27866;48.146;17.098;2023-04-24T04:23:47;14.63;;;9.40;;
42196;SDS011;27866;48.146;17.098;2023-04-24T04:28:05;14.35;;;10.27;;
42196;SDS011;27866;48.146;17.098;2023-04-24T04:32:16;11.82;;;9.25;;
42196;SDS011;27866;48.146;17.098;2023-04-24T04:36:28;15.40;;;9.65;;
42196;SDS011;27866;48.146;17.098;2023-04-24T04:40:47;11.93;;;9.05;;
42196;SDS011;27866;48.146;17.098;2023-04-24T04:45:01;12.97;;;9.03;;
42196;SDS011;27866;48.146;17.098;2023-04-24T04:49:24;12.40;;;9.55;;
42196;SDS011;27866;48.146;17.098;2023-04-24T04:53:39;16.92;;;9.52;;
42196;SDS011;27866;48.146;17.098;2023-04-24T04:57:51;16.30;;;11.55;;
42196;SDS011;27866;48.146;17.098;2023-04-24T05:02:03;15.23;;;8.82;;
42196;SDS011;27866;48.146;17.098;2023-04-24T05:06:15;13.77;;;8.63;;
42196;SDS011;27866;48.146;17.098;2023-04-24T05:10:27;13.45;;;9.13;;
42196;SDS011;27866;48.146;17.098;2023-04-24T05:14:40;18.10;;;8.43;;
42196;SDS011;27866;48.146;17.098;2023-04-24T05:18:52;12.45;;;8.57;;
42196;SDS011;27866;48.146;17.098;2023-04-24T05:23:09;16.65;;;8.95;;
42196;SDS011;27866;48.146;17.098;2023-04-24T05:27:23;18.42;;;9.15;;
42196;SDS011;27866;48.146;17.098;2023-04-24T05:31:35;26.30;;;10.00;;
42196;SDS011;27866;48.146;17.098;2023-04-24T05:35:47;14.65;;;9.05;;
42196;SDS011;27866;48.146;17.098;2023-04-24T05:39:59;17.23;;;9.15;;
42196;SDS011;27866;48.146;17.098;2023-04-24T05:44:10;14.82;;;8.48;;
42196;SDS011;27866;48.146;17.098;2023-04-24T05:48:21;25.75;;;10.25;;
42196;SDS011;27866;48.146;17.098;2023-04-24T05:52:33;20.98;;;8.90;;
42196;SDS011;27866;48.146;17.098;2023-04-24T05:56:49;15.45;;;9.65;;
42196;SDS011;27866;48.146;17.098;2023-04-24T06:01:10;24.05;;;8.40;;
42196;SDS011;27866;48.146;17.098;2023-04-24T06:05:22;27.73;;;10.02;;
42196;SDS011;27866;48.146;17.098;2023-04-24T06:09:37;19.08;;;8.52;;
42196;SDS011;27866;48.146;17.098;2023-04-24T06:13:48;15.35;;;8.70;;
42196;SDS011;27866;48.146;17.098;2023-04-24T06:18:37;18.48;;;8.32;;
42196;SDS011;27866;48.146;17.098;2023-04-24T06:22:49;17.05;;;6.53;;
42196;SDS011;27866;48.146;17.098;2023-04-24T06:27:00;12.85;;;5.80;;
42196;SDS011;27866;48.146;17.098;2023-04-24T06:31:12;9.95;;;4.80;;
42196;SDS011;27866;48.146;17.098;2023-04-24T06:35:23;5.78;;;3.83;;
42196;SDS011;27866;48.146;17.098;2023-04-24T06:39:34;6.30;;;4.50;;
42196;SDS011;27866;48.146;17.098;2023-04-24T06:43:45;9.18;;;4.43;;
42196;SDS011;27866;48.146;17.098;2023-04-24T06:47:57;10.40;;;3.88;;
42196;SDS011;27866;48.146;17.098;2023-04-24T06:52:08;6.07;;;3.90;;
42196;SDS011;27866;48.146;17.098;2023-04-24T06:56:20;10.07;;;4.18;;
42196;SDS011;27866;48.146;17.098;2023-04-24T07:00:31;9.35;;;3.63;;
42196;SDS011;27866;48.146;17.098;2023-04-24T07:04:42;5.40;;;3.65;;
42196;SDS011;27866;48.146;17.098;2023-04-24T07:08:54;5.15;;;3.40;;
42196;SDS011;27866;48.146;17.098;2023-04-24T07:13:06;7.13;;;3.40;;
42196;SDS011;27866;48.146;17.098;2023-04-24T07:17:18;5.05;;;3.17;;
42196;SDS011;27866;48.146;17.098;2023-04-24T07:21:30;9.90;;;3.40;;
42196;SDS011;27866;48.146;17.098;2023-04-24T07:25:41;4.25;;;3.20;;
42196;SDS011;27866;48.146;17.098;2023-04-24T07:29:53;13.73;;;3.28;;
42196;SDS011;27866;48.146;17.098;2023-04-24T07:34:04;7.65;;;2.90;;
42196;SDS011;27866;48.146;17.098;2023-04-24T07:38:15;3.90;;;3.05;;
42196;SDS011;27866;48.146;17.098;2023-04-24T07:42:27;6.30;;;2.95;;
42196;SDS011;27866;48.146;17.098;2023-04-24T07:50:52;3.60;;;2.92;;
42196;SDS011;27866;48.146;17.098;2023-04-24T07:55:04;7.70;;;3.15;;
42196;SDS011;27866;48.146;17.098;2023-04-24T07:59:16;6.85;;;2.88;;
42196;SDS011;27866;48.146;17.098;2023-04-24T08:03:27;5.47;;;2.88;;
42196;SDS011;27866;48.146;17.098;2023-04-24T08:07:38;7.82;;;3.50;;
42196;SDS011;27866;48.146;17.098;2023-04-24T08:11:50;15.10;;;3.20;;
42196;SDS011;27866;48.146;17.098;2023-04-24T08:16:01;27.15;;;4.85;;
42196;SDS011;27866;48.146;17.098;2023-04-24T08:20:12;4.95;;;2.70;;
42196;SDS011;27866;48.146;17.098;2023-04-24T08:24:23;8.05;;;2.58;;
42196;SDS011;27866;48.146;17.098;2023-04-24T08:28:35;4.97;;;2.38;;
42196;SDS011;27866;48.146;17.098;2023-04-24T08:32:47;6.85;;;2.88;;
42196;SDS011;27866;48.146;17.098;2023-04-24T08:36:58;7.85;;;3.00;;
42196;SDS011;27866;48.146;17.098;2023-04-24T08:41:09;6.60;;;2.60;;
42196;SDS011;27866;48.146;17.098;2023-04-24T08:45:21;3.78;;;2.63;;
42196;SDS011;27866;48.146;17.098;2023-04-24T08:49:33;4.55;;;2.60;;
42196;SDS011;27866;48.146;17.098;2023-04-24T08:53:46;6.00;;;3.10;;
42196;SDS011;27866;48.146;17.098;2023-04-24T08:57:57;5.40;;;3.20;;
42196;SDS011;27866;48.146;17.098;2023-04-24T09:02:11;4.65;;;2.90;;
42196;SDS011;27866;48.146;17.098;2023-04-24T09:06:23;5.15;;;2.65;;
42196;SDS011;27866;48.146;17.098;2023-04-24T09:10:36;19.17;;;3.70;;
42196;SDS011;27866;48.146;17.098;2023-04-24T09:14:49;6.45;;;2.60;;
42196;SDS011;27866;48.146;17.098;2023-04-24T09:19:00;6.93;;;2.58;;
42196;SDS011;27866;48.146;17.098;2023-04-24T09:23:16;18.60;;;2.80;;
42196;SDS011;27866;48.146;17.098;2023-04-24T09:27:28;6.50;;;2.30;;
42196;SDS011;27866;48.146;17.098;2023-04-24T09:31:40;7.15;;;2.30;;
42196;SDS011;27866;48.146;17.098;2023-04-24T09:35:51;5.07;;;2.38;;
42196;SDS011;27866;48.146;17.098;2023-04-24T09:44:27;5.90;;;2.77;;
42196;SDS011;27866;48.146;17.098;2023-04-24T09:48:38;3.45;;;2.00;;
42196;SDS011;27866;48.146;17.098;2023-04-24T09:52:58;3.53;;;2.20;;
42196;SDS011;27866;48.146;17.098;2023-04-24T09:57:14;2.83;;;2.10;;
42196;SDS011;27866;48.146;17.098;2023-04-24T10:01:32;2.78;;;1.98;;
42196;SDS011;27866;48.146;17.098;2023-04-24T10:05:45;3.95;;;2.00;;
42196;SDS011;27866;48.146;17.098;2023-04-24T10:09:57;3.70;;;1.67;;
42196;SDS011;27866;48.146;17.098;2023-04-24T10:14:13;3.65;;;1.60;;
42196;SDS011;27866;48.146;17.098;2023-04-24T10:18:27;1.63;;;1.40;;
42196;SDS011;27866;48.146;17.098;2023-04-24T10:22:38;5.30;;;1.40;;
42196;SDS011;27866;48.146;17.098;2023-04-24T10:26:50;4.53;;;2.42;;
42196;SDS011;27866;48.146;17.098;2023-04-24T10:31:02;3.15;;;1.55;;
42196;SDS011;27866;48.146;17.098;2023-04-24T10:35:14;2.97;;;1.38;;
42196;SDS011;27866;48.146;17.098;2023-04-24T10:39:27;2.70;;;1.53;;
42196;SDS011;27866;48.146;17.098;2023-04-24T10:43:41;3.27;;;1.53;;
42196;SDS011;27866;48.146;17.098;2023-04-24T10:48:12;3.53;;;1.70;;
42196;SDS011;27866;48.146;17.098;2023-04-24T10:52:43;2.38;;;1.60;;
42196;SDS011;27866;48.146;17.098;2023-04-24T11:01:35;2.65;;;1.50;;
42196;SDS011;27866;48.146;17.098;2023-04-24T11:10:24;3.50;;;1.42;;
42196;SDS011;27866;48.146;17.098;2023-04-24T11:19:16;2.30;;;1.45;;
42196;SDS011;27866;48.146;17.098;2023-04-24T11:23:35;2.35;;;1.40;;
42196;SDS011;27866;48.146;17.098;2023-04-24T11:27:47;2.47;;;1.60;;
42196;SDS011;27866;48.146;17.098;2023-04-24T11:32:11;3.25;;;1.52;;
42196;SDS011;27866;48.146;17.098;2023-04-24T11:36:38;4.20;;;1.50;;
42196;SDS011;27866;48.146;17.098;2023-04-24T11:40:53;5.50;;;1.50;;
42196;SDS011;27866;48.146;17.098;2023-04-24T11:45:11;2.17;;;1.52;;
42196;SDS011;27866;48.146;17.098;2023-04-24T11:49:25;1.63;;;1.30;;
42196;SDS011;27866;48.146;17.098;2023-04-24T11:53:36;2.92;;;1.52;;
42196;SDS011;27866;48.146;17.098;2023-04-24T11:57:49;3.17;;;1.60;;
42196;SDS011;27866;48.146;17.098;2023-04-24T12:02:04;3.35;;;1.60;;
42196;SDS011;27866;48.146;17.098;2023-04-24T12:06:16;1.67;;;1.30;;
42196;SDS011;27866;48.146;17.098;2023-04-24T12:10:29;6.80;;;1.92;;
42196;SDS011;27866;48.146;17.098;2023-04-24T12:14:49;2.75;;;1.50;;
42196;SDS011;27866;48.146;17.098;2023-04-24T12:19:04;5.47;;;1.70;;
42196;SDS011;27866;48.146;17.098;2023-04-24T12:23:28;1.98;;;1.23;;
42196;SDS011;27866;48.146;17.098;2023-04-24T12:27:46;1.10;;;1.00;;
42196;SDS011;27866;48.146;17.098;2023-04-24T12:32:04;1.85;;;1.35;;
42196;SDS011;27866;48.146;17.098;2023-04-24T12:36:15;1.73;;;1.23;;
42196;SDS011;27866;48.146;17.098;2023-04-24T12:40:26;3.45;;;1.30;;
42196;SDS011;27866;48.146;17.098;2023-04-24T12:44:39;3.30;;;1.67;;
42196;SDS011;27866;48.146;17.098;2023-04-24T12:48:50;1.95;;;1.20;;
42196;SDS011;27866;48.146;17.098;2023-04-24T12:53:02;6.30;;;1.33;;
42196;SDS011;27866;48.146;17.098;2023-04-24T12:57:13;4.13;;;1.58;;
42196;SDS011;27866;48.146;17.098;2023-04-24T13:01:24;2.25;;;1.48;;
42196;SDS011;27866;48.146;17.098;2023-04-24T13:05:38;2.93;;;1.40;;
42196;SDS011;27866;48.146;17.098;2023-04-24T13:09:50;2.60;;;1.60;;
42196;SDS011;27866;48.146;17.098;2023-04-24T13:14:02;3.55;;;1.40;;
42196;SDS011;27866;48.146;17.098;2023-04-24T13:18:13;2.88;;;1.60;;
42196;SDS011;27866;48.146;17.098;2023-04-24T13:22:25;2.28;;;1.27;;
42196;SDS011;27866;48.146;17.098;2023-04-24T13:26:38;4.47;;;1.50;;
42196;SDS011;27866;48.146;17.098;2023-04-24T13:30:49;3.17;;;1.30;;
42196;SDS011;27866;48.146;17.098;2023-04-24T13:35:01;4.30;;;1.40;;
42196;SDS011;27866;48.146;17.098;2023-04-24T13:39:13;1.77;;;1.40;;
42196;SDS011;27866;48.146;17.098;2023-04-24T13:43:30;2.95;;;1.50;;
42196;SDS011;27866;48.146;17.098;2023-04-24T13:47:41;2.63;;;1.42;;
42196;SDS011;27866;48.146;17.098;2023-04-24T13:51:53;4.35;;;1.70;;
42196;SDS011;27866;48.146;17.098;2023-04-24T13:56:06;3.55;;;1.30;;
42196;SDS011;27866;48.146;17.098;2023-04-24T14:00:18;2.50;;;1.20;;
42196;SDS011;27866;48.146;17.098;2023-04-24T14:04:30;3.08;;;1.25;;
42196;SDS011;27866;48.146;17.098;2023-04-24T14:08:42;1.83;;;1.30;;
42196;SDS011;27866;48.146;17.098;2023-04-24T14:12:53;1.75;;;1.20;;
42196;SDS011;27866;48.146;17.098;2023-04-24T14:17:05;5.40;;;1.50;;
42196;SDS011;27866;48.146;17.098;2023-04-24T14:21:17;9.93;;;3.03;;
42196;SDS011;27866;48.146;17.098;2023-04-24T14:25:28;12.73;;;4.15;;
42196;SDS011;27866;48.146;17.098;2023-04-24T14:29:40;19.88;;;5.60;;
42196;SDS011;27866;48.146;17.098;2023-04-24T14:33:51;13.25;;;4.18;;
42196;SDS011;27866;48.146;17.098;2023-04-24T14:38:03;11.80;;;3.38;;
42196;SDS011;27866;48.146;17.098;2023-04-24T14:42:14;6.07;;;2.30;;
42196;SDS011;27866;48.146;17.098;2023-04-24T14:46:27;4.82;;;1.75;;
42196;SDS011;27866;48.146;17.098;2023-04-24T14:50:38;2.50;;;1.65;;
42196;SDS011;27866;48.146;17.098;2023-04-24T14:54:50;3.65;;;1.70;;
42196;SDS011;27866;48.146;17.098;2023-04-24T14:59:01;10.25;;;1.52;;
42196;SDS011;27866;48.146;17.098;2023-04-24T15:03:14;1.60;;;1.00;;
42196;SDS011;27866;48.146;17.098;2023-04-24T15:07:25;1.95;;;1.10;;
42196;SDS011;27866;48.146;17.098;2023-04-24T15:11:36;1.25;;;1.00;;
42196;SDS011;27866;48.146;17.098;2023-04-24T15:15:48;1.55;;;0.85;;
42196;SDS011;27866;48.146;17.098;2023-04-24T15:19:59;2.28;;;1.00;;
42196;SDS011;27866;48.146;17.098;2023-04-24T15:24:11;2.10;;;1.00;;
42196;SDS011;27866;48.146;17.098;2023-04-24T15:28:22;1.95;;;1.00;;
42196;SDS011;27866;48.146;17.098;2023-04-24T15:32:35;2.63;;;1.17;;
42196;SDS011;27866;48.146;17.098;2023-04-24T15:36:46;2.67;;;1.30;;
42196;SDS011;27866;48.146;17.098;2023-04-24T15:40:58;1.17;;;0.90;;
42196;SDS011;27866;48.146;17.098;2023-04-24T15:45:09;1.58;;;1.08;;
42196;SDS011;27866;48.146;17.098;2023-04-24T15:49:22;3.47;;;1.38;;
42196;SDS011;27866;48.146;17.098;2023-04-24T15:53:33;2.03;;;1.20;;
42196;SDS011;27866;48.146;17.098;2023-04-24T15:57:44;1.77;;;1.20;;
42196;SDS011;27866;48.146;17.098;2023-04-24T16:01:55;2.17;;;1.17;;
42196;SDS011;27866;48.146;17.098;2023-04-24T16:06:07;1.85;;;1.20;;
42196;SDS011;27866;48.146;17.098;2023-04-24T16:10:18;1.60;;;1.10;;
42196;SDS011;27866;48.146;17.098;2023-04-24T16:14:29;2.15;;;1.23;;
42196;SDS011;27866;48.146;17.098;2023-04-24T16:18:41;1.92;;;1.23;;
42196;SDS011;27866;48.146;17.098;2023-04-24T16:22:52;3.17;;;1.55;;
42196;SDS011;27866;48.146;17.098;2023-04-24T16:27:03;2.05;;;1.30;;
42196;SDS011;27866;48.146;17.098;2023-04-24T16:31:15;2.38;;;1.48;;
42196;SDS011;27866;48.146;17.098;2023-04-24T16:35:26;2.50;;;1.33;;
42196;SDS011;27866;48.146;17.098;2023-04-24T16:39:37;4.03;;;1.40;;
42196;SDS011;27866;48.146;17.098;2023-04-24T16:43:53;2.53;;;1.50;;
42196;SDS011;27866;48.146;17.098;2023-04-24T16:48:05;4.20;;;1.60;;
42196;SDS011;27866;48.146;17.098;2023-04-24T16:52:17;4.45;;;2.00;;
42196;SDS011;27866;48.146;17.098;2023-04-24T16:56:28;3.95;;;1.50;;
42196;SDS011;27866;48.146;17.098;2023-04-24T17:00:39;2.55;;;1.20;;
42196;SDS011;27866;48.146;17.098;2023-04-24T17:04:51;2.97;;;1.55;;
42196;SDS011;27866;48.146;17.098;2023-04-24T17:09:02;3.80;;;1.77;;
42196;SDS011;27866;48.146;17.098;2023-04-24T17:13:14;3.30;;;2.20;;
42196;SDS011;27866;48.146;17.098;2023-04-24T17:17:25;4.20;;;2.10;;
42196;SDS011;27866;48.146;17.098;2023-04-24T17:21:37;6.90;;;2.38;;
42196;SDS011;27866;48.146;17.098;2023-04-24T17:25:48;4.03;;;2.30;;
42196;SDS011;27866;48.146;17.098;2023-04-24T17:29:59;2.17;;;1.70;;
42196;SDS011;27866;48.146;17.098;2023-04-24T17:34:10;3.55;;;1.67;;
42196;SDS011;27866;48.146;17.098;2023-04-24T17:38:22;2.20;;;1.30;;
42196;SDS011;27866;48.146;17.098;2023-04-24T17:42:33;3.78;;;1.67;;
42196;SDS011;27866;48.146;17.098;2023-04-24T17:46:47;1.90;;;1.30;;
42196;SDS011;27866;48.146;17.098;2023-04-24T17:50:58;3.42;;;1.50;;
42196;SDS011;27866;48.146;17.098;2023-04-24T17:55:09;2.38;;;1.70;;
42196;SDS011;27866;48.146;17.098;2023-04-24T17:59:20;2.22;;;1.65;;
42196;SDS011;27866;48.146;17.098;2023-04-24T18:03:33;3.67;;;1.88;;
42196;SDS011;27866;48.146;17.098;2023-04-24T18:07:44;5.35;;;2.17;;
42196;SDS011;27866;48.146;17.098;2023-04-24T18:11:55;2.55;;;1.45;;
42196;SDS011;27866;48.146;17.098;2023-04-24T18:16:07;3.30;;;1.80;;
42196;SDS011;27866;48.146;17.098;2023-04-24T18:20:19;3.90;;;1.60;;
42196;SDS011;27866;48.146;17.098;2023-04-24T18:24:30;3.80;;;1.83;;
42196;SDS011;27866;48.146;17.098;2023-04-24T18:28:42;3.38;;;1.90;;
42196;SDS011;27866;48.146;17.098;2023-04-24T18:32:55;4.50;;;1.90;;
42196;SDS011;27866;48.146;17.098;2023-04-24T18:37:06;7.85;;;2.25;;
42196;SDS011;27866;48.146;17.098;2023-04-24T18:41:17;3.83;;;1.70;;
42196;SDS011;27866;48.146;17.098;2023-04-24T18:45:29;3.08;;;2.00;;
42196;SDS011;27866;48.146;17.098;2023-04-24T18:49:40;5.20;;;2.22;;
42196;SDS011;27866;48.146;17.098;2023-04-24T18:53:51;2.90;;;1.92;;
42196;SDS011;27866;48.146;17.098;2023-04-24T18:58:03;3.65;;;2.22;;
42196;SDS011;27866;48.146;17.098;2023-04-24T19:02:14;4.65;;;1.98;;
42196;SDS011;27866;48.146;17.098;2023-04-24T19:06:26;4.53;;;2.35;;
42196;SDS011;27866;48.146;17.098;2023-04-24T19:10:37;2.90;;;1.98;;
42196;SDS011;27866;48.146;17.098;2023-04-24T19:14:48;5.90;;;2.33;;
42196;SDS011;27866;48.146;17.098;2023-04-24T19:19:01;4.35;;;2.60;;
42196;SDS011;27866;48.146;17.098;2023-04-24T19:23:12;3.38;;;2.47;;
42196;SDS011;27866;48.146;17.098;2023-04-24T19:27:23;4.32;;;2.67;;
42196;SDS011;27866;48.146;17.098;2023-04-24T19:31:35;4.60;;;2.78;;
42196;SDS011;27866;48.146;17.098;2023-04-24T19:35:46;7.57;;;2.90;;
42196;SDS011;27866;48.146;17.098;2023-04-24T19:39:58;6.32;;;2.90;;
42196;SDS011;27866;48.146;17.098;2023-04-24T19:44:09;6.22;;;2.70;;
42196;SDS011;27866;48.146;17.098;2023-04-24T19:48:20;4.93;;;3.40;;
42196;SDS011;27866;48.146;17.098;2023-04-24T19:52:32;4.80;;;3.15;;
42196;SDS011;27866;48.146;17.098;2023-04-24T19:56:43;7.00;;;3.08;;
42196;SDS011;27866;48.146;17.098;2023-04-24T20:00:54;7.10;;;2.83;;
42196;SDS011;27866;48.146;17.098;2023-04-24T20:05:07;3.90;;;2.67;;
42196;SDS011;27866;48.146;17.098;2023-04-24T20:09:18;6.63;;;3.45;;
42196;SDS011;27866;48.146;17.098;2023-04-24T20:13:30;4.82;;;2.88;;
42196;SDS011;27866;48.146;17.098;2023-04-24T20:17:42;4.97;;;2.97;;
42196;SDS011;27866;48.146;17.098;2023-04-24T20:21:53;5.85;;;2.78;;
42196;SDS011;27866;48.146;17.098;2023-04-24T20:26:05;5.38;;;2.78;;
42196;SDS011;27866;48.146;17.098;2023-04-24T20:30:17;6.03;;;3.38;;
42196;SDS011;27866;48.146;17.098;2023-04-24T20:34:29;8.10;;;2.65;;
42196;SDS011;27866;48.146;17.098;2023-04-24T20:38:41;4.28;;;3.30;;
42196;SDS011;27866;48.146;17.098;2023-04-24T20:42:52;5.35;;;3.17;;
42196;SDS011;27866;48.146;17.098;2023-04-24T20:47:05;4.68;;;3.25;;
42196;SDS011;27866;48.146;17.098;2023-04-24T20:51:16;4.75;;;3.15;;
42196;SDS011;27866;48.146;17.098;2023-04-24T20:55:28;4.03;;;2.80;;
42196;SDS011;27866;48.146;17.098;2023-04-24T20:59:40;4.57;;;2.35;;
42196;SDS011;27866;48.146;17.098;2023-04-24T21:03:51;2.72;;;2.13;;
42196;SDS011;27866;48.146;17.098;2023-04-24T21:08:02;5.55;;;2.72;;
42196;SDS011;27866;48.146;17.098;2023-04-24T21:12:14;3.30;;;2.20;;
42196;SDS011;27866;48.146;17.098;2023-04-24T21:16:25;2.92;;;2.10;;
42196;SDS011;27866;48.146;17.098;2023-04-24T21:20:36;4.60;;;2.20;;
42196;SDS011;27866;48.146;17.098;2023-04-24T21:24:48;3.05;;;1.98;;
42196;SDS011;27866;48.146;17.098;2023-04-24T21:28:59;3.05;;;2.20;;
42196;SDS011;27866;48.146;17.098;2023-04-24T21:33:11;3.13;;;2.20;;
42196;SDS011;27866;48.146;17.098;2023-04-24T21:37:22;7.15;;;2.20;;
42196;SDS011;27866;48.146;17.098;2023-04-24T21:41:34;3.20;;;1.88;;
42196;SDS011;27866;48.146;17.098;2023-04-24T21:45:45;3.58;;;2.20;;
42196;SDS011;27866;48.146;17.098;2023-04-24T21:49:56;5.20;;;2.65;;
42196;SDS011;27866;48.146;17.098;2023-04-24T21:54:08;3.58;;;1.90;;
42196;SDS011;27866;48.146;17.098;2023-04-24T21:58:19;2.53;;;1.83;;
42196;SDS011;27866;48.146;17.098;2023-04-24T22:02:30;3.75;;;1.83;;
42196;SDS011;27866;48.146;17.098;2023-04-24T22:06:41;5.25;;;1.85;;
42196;SDS011;27866;48.146;17.098;2023-04-24T22:10:53;4.00;;;1.67;;
42196;SDS011;27866;48.146;17.098;2023-04-24T22:15:04;3.30;;;1.70;;
42196;SDS011;27866;48.146;17.098;2023-04-24T22:19:16;2.45;;;1.60;;
42196;SDS011;27866;48.146;17.098;2023-04-24T22:23:27;2.33;;;1.65;;
42196;SDS011;27866;48.146;17.098;2023-04-24T22:27:39;2.25;;;1.60;;
42196;SDS011;27866;48.146;17.098;2023-04-24T22:31:50;2.47;;;1.60;;
42196;SDS011;27866;48.146;17.098;2023-04-24T22:36:01;3.70;;;1.60;;
42196;SDS011;27866;48.146;17.098;2023-04-24T22:40:12;2.80;;;1.80;;
42196;SDS011;27866;48.146;17.098;2023-04-24T22:44:24;2.65;;;1.92;;
42196;SDS011;27866;48.146;17.098;2023-04-24T22:48:35;2.25;;;1.80;;
42196;SDS011;27866;48.146;17.098;2023-04-24T22:52:46;3.28;;;1.63;;
42196;SDS011;27866;48.146;17.098;2023-04-24T22:56:58;2.97;;;1.65;;
42196;SDS011;27866;48.146;17.098;2023-04-24T23:01:09;3.28;;;1.77;;
42196;SDS011;27866;48.146;17.098;2023-04-24T23:05:20;3.60;;;2.10;;
42196;SDS011;27866;48.146;17.098;2023-04-24T23:09:32;3.50;;;1.80;;
42196;SDS011;27866;48.146;17.098;2023-04-24T23:13:43;5.60;;;1.80;;
42196;SDS011;27866;48.146;17.098;2023-04-24T23:17:55;3.08;;;1.77;;
42196;SDS011;27866;48.146;17.098;2023-04-24T23:22:06;4.53;;;2.33;;
42196;SDS011;27866;48.146;17.098;2023-04-24T23:26:17;3.28;;;2.05;;
42196;SDS011;27866;48.146;17.098;2023-04-24T23:30:28;4.78;;;1.98;;
42196;SDS011;27866;48.146;17.098;2023-04-24T23:34:40;5.80;;;1.98;;
42196;SDS011;27866;48.146;17.098;2023-04-24T23:38:51;3.25;;;2.00;;
42196;SDS011;27866;48.146;17.098;2023-04-24T23:43:02;4.43;;;2.20;;
42196;SDS011;27866;48.146;17.098;2023-04-24T23:47:14;3.15;;;1.90;;
42196;SDS011;27866;48.146;17.098;2023-04-24T23:51:25;2.30;;;1.90;;
42196;SDS011;27866;48.146;17.098;2023-04-24T23:55:37;3.22;;;2.00;;
42196;SDS011;27866;48.146;17.098;2023-04-24T23:59:48;3.97;;;1.70;;
